Aigle Des Mers — FO4883 — position and weather

sailwx.info

Track history (hours):
 
Tides and Currents Weather Stations Pressure Air Temp Water Temp Dewpoint Dewpoint Depression Visibility Wind Speed Wind Dir Waves Ship Positions

Aigle Des Mers

Last reported at 2015-May-26 01:33 UTC. Time now 2015-May-26 13:55 UTC.
Position N 48°07' W 004°20'.

Type: Fishing. MMSI: 227318010.

Date/timePositionNaut miles runAvg speedWind from/ knotsBaromVisibWave heightAir tempDewpointWater temp
2015-May-26 01:33N 48°07' W 004°20'4 4.3
2015-May-26 00:34N 48°09' W 004°25'4 3.6
2015-May-25 23:33N 48°11' W 004°20'3 3.4
2015-May-25 22:33N 48°12' W 004°25'5 4.3
2015-May-25 21:18N 48°07' W 004°28'5 6.4
2015-May-25 20:33N 48°08' W 004°35'0 0.2
2015-May-25 19:33N 48°08' W 004°35'8 8.0
2015-May-25 18:33N 48°08' W 004°23'  
2015-May-22 01:32N 48°06' W 004°19'3 3.2
2015-May-22 00:33N 48°08' W 004°23'6 5.6
2015-May-21 23:33N 48°08' W 004°31'7 7.3
2015-May-21 22:33N 48°14' W 004°37'7 7.1
2015-May-21 21:33N 48°15' W 004°48'4 3.9
2015-May-21 20:33N 48°17' W 004°52'3 3.1
2015-May-21 19:33N 48°15' W 004°50'7 7.3
2015-May-21 18:33N 48°11' W 004°40'9 8.5
2015-May-21 17:33N 48°08' W 004°28'  
2015-May-18 00:25N 48°06' W 004°19'1 0.6
2015-May-17 23:34N 48°06' W 004°19'9 8.5
2015-May-17 22:33N 48°09' W 004°31'9 8.9
2015-May-17 21:33N 48°13' W 004°44'3 2.9
2015-May-17 20:34N 48°13' W 004°48'4 3.6
2015-May-17 19:34N 48°13' W 004°53'3 3.1
2015-May-17 18:33N 48°12' W 004°49'8 8.4
2015-May-17 17:33N 48°10' W 004°36'9 9.0
2015-May-17 16:33N 48°07' W 004°24'  
Track history (hours):
 
Tides and Currents Weather Stations Pressure Air Temp Water Temp Dewpoint Dewpoint Depression Visibility Wind Speed Wind Dir Waves Ship Positions

Aigle Des Mers

Last reported at 2015-May-26 01:33 UTC. Time now 2015-May-26 13:55 UTC.
Position N 48°07' W 004°20'.

Type: Fishing. MMSI: 227318010.

Date/timePositionNaut miles runAvg speedWind from/ knotsBaromVisibWave heightAir tempDewpointWater temp
2015-May-26 01:33N 48°07' W 004°20'4 4.3
2015-May-26 00:34N 48°09' W 004°25'4 3.6
2015-May-25 23:33N 48°11' W 004°20'3 3.4
2015-May-25 22:33N 48°12' W 004°25'5 4.3
2015-May-25 21:18N 48°07' W 004°28'5 6.4
2015-May-25 20:33N 48°08' W 004°35'0 0.2
2015-May-25 19:33N 48°08' W 004°35'8 8.0
2015-May-25 18:33N 48°08' W 004°23'  
2015-May-22 01:32N 48°06' W 004°19'3 3.2
2015-May-22 00:33N 48°08' W 004°23'6 5.6
2015-May-21 23:33N 48°08' W 004°31'7 7.3
2015-May-21 22:33N 48°14' W 004°37'7 7.1
2015-May-21 21:33N 48°15' W 004°48'4 3.9
2015-May-21 20:33N 48°17' W 004°52'3 3.1
2015-May-21 19:33N 48°15' W 004°50'7 7.3
2015-May-21 18:33N 48°11' W 004°40'9 8.5
2015-May-21 17:33N 48°08' W 004°28'  
2015-May-18 00:25N 48°06' W 004°19'1 0.6
2015-May-17 23:34N 48°06' W 004°19'9 8.5
2015-May-17 22:33N 48°09' W 004°31'9 8.9
2015-May-17 21:33N 48°13' W 004°44'3 2.9
2015-May-17 20:34N 48°13' W 004°48'4 3.6
2015-May-17 19:34N 48°13' W 004°53'3 3.1
2015-May-17 18:33N 48°12' W 004°49'8 8.4
2015-May-17 17:33N 48°10' W 004°36'9 9.0
2015-May-17 16:33N 48°07' W 004°24'  

Dump ship's entire track history